Time;durP1;ratioP1;P1;durP2;ratioP2;P2;SDS_P1;SDS_P2;PMS_P1;PMS_P2;Temp;Humidity;BMP_temperature;BMP_pressure;BME280_temperature;BME280_humidity;BME280_pressure;Samples;Min_cycle;Max_cycle;Signal;HPM_P1;HPM_P2
2021/01/06 00:01:42;;;;;;;8.98;1.85;;;11.80;99.90;;;;;;4993007;28;20050;-65
2021/01/06 00:04:10;;;;;;;11.88;1.17;;;11.80;99.90;;;;;;4992019;28;20562;-65
2021/01/06 00:06:38;;;;;;;7.80;1.40;;;11.80;99.90;;;;;;4992900;28;20058;-65
2021/01/06 00:09:08;;;;;;;6.43;1.63;;;11.90;99.90;;;;;;4992791;28;20050;-66
2021/01/06 00:11:40;;;;;;;11.38;2.15;;;11.90;99.90;;;;;;4999958;28;20085;-65
2021/01/06 00:14:12;;;;;;;5.63;0.82;;;11.80;99.90;;;;;;4992645;28;20058;-65
2021/01/06 00:16:40;;;;;;;13.55;1.95;;;11.80;99.90;;;;;;4992957;28;20050;-65
2021/01/06 00:19:10;;;;;;;14.65;1.65;;;11.80;99.90;;;;;;4993640;28;20054;-66
2021/01/06 00:21:41;;;;;;;7.03;2.10;;;11.90;99.90;;;;;;4992728;28;20125;-65
2021/01/06 00:24:09;;;;;;;11.93;2.15;;;11.80;99.90;;;;;;4991203;28;20043;-65
2021/01/06 00:26:38;;;;;;;13.18;2.35;;;11.80;99.90;;;;;;4991334;28;20129;-66
2021/01/06 00:29:12;;;;;;;10.27;2.33;;;11.90;99.90;;;;;;4992550;28;20058;-66
2021/01/06 00:31:43;;;;;;;6.53;1.17;;;11.90;99.90;;;;;;4992641;28;20058;-65
2021/01/06 00:34:13;;;;;;;12.77;1.40;;;11.90;99.90;;;;;;4992132;28;20057;-66
2021/01/06 00:36:46;;;;;;;10.38;1.70;;;11.90;99.90;;;;;;4992363;28;20463;-66
2021/01/06 00:39:14;;;;;;;9.00;1.98;;;11.90;99.90;;;;;;4992819;28;20050;-65
2021/01/06 00:41:42;;;;;;;12.77;2.45;;;12.00;99.90;;;;;;5000682;28;20081;-65
2021/01/06 00:44:10;;;;;;;14.65;2.40;;;12.00;99.90;;;;;;5010027;28;20054;-64
2021/01/06 00:46:38;;;;;;;7.20;1.25;;;12.00;99.90;;;;;;5011788;28;20054;-65
2021/01/06 00:49:08;;;;;;;7.00;2.58;;;12.10;99.90;;;;;;5011742;28;20521;-66
2021/01/06 00:51:37;;;;;;;10.68;1.27;;;12.10;99.90;;;;;;5001267;28;20058;-66
2021/01/06 00:54:07;;;;;;;12.57;1.67;;;12.10;99.90;;;;;;4996628;28;20050;-65
2021/01/06 00:56:36;;;;;;;11.30;1.55;;;12.10;99.90;;;;;;5010025;28;20430;-65
2021/01/06 00:59:11;;;;;;;7.57;1.58;;;12.10;99.90;;;;;;5010543;28;20073;-66
2021/01/06 01:01:39;;;;;;;18.08;2.47;;;12.10;99.90;;;;;;5011723;28;20053;-66
2021/01/06 01:04:07;;;;;;;16.67;3.03;;;12.10;99.90;;;;;;5010294;28;20071;-65
2021/01/06 01:06:35;;;;;;;14.73;1.27;;;12.10;99.90;;;;;;4992774;28;20050;-68
2021/01/06 01:09:04;;;;;;;12.38;2.55;;;12.10;99.90;;;;;;5011309;28;20053;-65
2021/01/06 01:11:37;;;;;;;13.70;1.17;;;12.10;99.90;;;;;;5010422;28;20554;-67
2021/01/06 01:14:05;;;;;;;12.77;1.33;;;12.10;99.90;;;;;;5006920;28;20128;-66
2021/01/06 01:16:41;;;;;;;12.60;2.53;;;12.20;99.90;;;;;;5010904;28;20508;-66
2021/01/06 01:19:10;;;;;;;10.30;1.85;;;12.10;99.90;;;;;;5011399;28;20054;-66
2021/01/06 01:21:37;;;;;;;9.90;1.33;;;12.10;99.90;;;;;;5006543;28;20069;-66
2021/01/06 01:24:06;;;;;;;25.15;2.55;;;12.10;99.90;;;;;;5000928;28;20046;-69
2021/01/06 01:26:34;;;;;;;4.72;1.50;;;12.10;99.90;;;;;;4991289;28;20401;-66
2021/01/06 01:29:02;;;;;;;8.82;1.42;;;12.10;99.90;;;;;;4991629;28;20133;-65
2021/01/06 01:31:35;;;;;;;13.23;2.13;;;12.20;99.90;;;;;;4990469;28;20050;-66
2021/01/06 01:34:04;;;;;;;15.23;1.80;;;12.20;99.90;;;;;;4991627;28;20393;-65
2021/01/06 01:36:31;;;;;;;8.10;1.33;;;12.20;99.90;;;;;;4991142;28;20058;-66
2021/01/06 01:38:59;;;;;;;13.27;2.60;;;12.20;99.90;;;;;;4991446;28;20076;-65
2021/01/06 01:41:27;;;;;;;12.63;2.15;;;12.20;99.90;;;;;;4995577;28;20415;-65
2021/01/06 01:43:55;;;;;;;11.60;2.58;;;12.20;99.90;;;;;;5011210;28;20407;-65
2021/01/06 01:46:23;;;;;;;14.68;2.88;;;12.20;99.90;;;;;;5009351;28;20050;-66
2021/01/06 01:48:51;;;;;;;18.13;3.42;;;12.20;99.90;;;;;;5010841;28;20061;-67
2021/01/06 01:51:40;;;;;;;19.13;1.60;;;12.20;99.90;;;;;;5010960;28;20067;-65
2021/01/06 01:54:14;;;;;;;13.98;1.95;;;12.30;99.90;;;;;;5010790;28;20101;-65
2021/01/06 01:57:02;;;;;;;16.58;2.78;;;12.20;99.90;;;;;;5010505;28;20535;-66
2021/01/06 01:59:49;;;;;;;30.52;3.83;;;12.30;99.90;;;;;;5010877;28;20125;-66
2021/01/06 02:02:40;;;;;;;15.32;1.88;;;12.30;99.90;;;;;;5010767;28;20051;-66
2021/01/06 02:05:37;;;;;;;13.85;2.95;;;12.30;99.90;;;;;;5010226;28;20058;-66
2021/01/06 02:08:41;;;;;;;7.43;2.17;;;12.30;99.90;;;;;;5010724;28;20058;-67
2021/01/06 02:11:16;;;;;;;8.07;0.65;;;12.30;99.90;;;;;;5029934;28;20050;-66
2021/01/06 02:13:50;;;;;;;11.23;2.67;;;12.30;99.90;;;;;;4992057;28;20050;-65
2021/01/06 02:16:52;;;;;;;13.15;3.50;;;12.30;99.90;;;;;;4989334;28;20082;-65
2021/01/06 02:19:24;;;;;;;9.85;1.55;;;12.30;99.90;;;;;;5004892;28;20050;-65
2021/01/06 02:21:51;;;;;;;8.85;1.55;;;12.30;99.90;;;;;;4989858;28;20050;-65
2021/01/06 02:24:22;;;;;;;14.82;2.25;;;12.30;99.90;;;;;;4990536;28;20046;-65
2021/01/06 02:26:50;;;;;;;14.05;1.92;;;12.30;99.90;;;;;;4991773;28;20595;-66
2021/01/06 02:29:18;;;;;;;18.40;2.17;;;12.40;99.90;;;;;;4990905;28;20058;-66
2021/01/06 02:31:46;;;;;;;5.85;1.02;;;12.30;99.90;;;;;;4990862;28;20054;-65
2021/01/06 02:34:14;;;;;;;9.82;1.70;;;12.40;99.90;;;;;;5073450;28;20054;-65
2021/01/06 02:36:42;;;;;;;10.40;1.83;;;12.40;99.90;;;;;;4990683;28;20059;-65
2021/01/06 02:39:10;;;;;;;15.65;2.60;;;12.40;99.90;;;;;;5001607;28;20139;-65
2021/01/06 02:41:39;;;;;;;20.65;2.40;;;12.30;99.90;;;;;;5009767;28;20046;-66
2021/01/06 02:44:08;;;;;;;9.52;1.13;;;12.30;99.90;;;;;;5010102;28;20054;-65
2021/01/06 02:46:37;;;;;;;16.65;2.95;;;12.30;99.90;;;;;;5010145;28;20426;-66
2021/01/06 02:49:06;;;;;;;12.73;2.45;;;12.30;99.90;;;;;;5010253;28;20485;-66
2021/01/06 02:51:47;;;;;;;18.20;3.92;;;12.30;99.90;;;;;;5010266;28;20510;-66
2021/01/06 02:54:27;;;;;;;20.10;2.47;;;12.30;99.90;;;;;;5009742;28;20058;-65
2021/01/06 02:56:58;;;;;;;15.40;2.60;;;12.30;99.90;;;;;;5006426;28;20046;-65
2021/01/06 02:59:33;;;;;;;13.32;2.47;;;12.30;99.90;;;;;;5010150;28;20518;-67
2021/01/06 03:02:01;;;;;;;;;;;12.30;99.90;;;;;;5010527;28;20049;-65
2021/01/06 03:04:35;;;;;;;10.13;2.00;;;12.30;99.90;;;;;;5009391;28;19933;-65
2021/01/06 03:07:06;;;;;;;12.90;2.63;;;12.30;99.90;;;;;;5008875;28;20081;-65
2021/01/06 03:09:41;;;;;;;16.75;2.60;;;12.30;99.90;;;;;;5009832;28;20145;-66
2021/01/06 03:12:10;;;;;;;18.88;2.65;;;12.40;99.90;;;;;;5009950;28;20057;-66
2021/01/06 03:14:40;;;;;;;9.57;2.00;;;12.40;99.90;;;;;;5009735;28;20155;-65
2021/01/06 03:17:10;;;;;;;16.73;3.10;;;12.40;99.90;;;;;;5009740;28;20054;-66
2021/01/06 03:19:42;;;;;;;22.63;3.30;;;12.40;99.90;;;;;;5007588;28;20046;-66
2021/01/06 03:22:14;;;;;;;12.90;2.22;;;12.40;99.90;;;;;;5009814;28;20054;-64
2021/01/06 03:24:51;;;;;;;18.85;3.58;;;12.40;99.90;;;;;;5009351;28;20054;-65
2021/01/06 03:27:20;;;;;;;21.95;2.42;;;12.30;99.90;;;;;;5003922;28;20111;-65
2021/01/06 03:29:49;;;;;;;10.85;2.05;;;12.30;99.90;;;;;;4990977;28;20133;-65
2021/01/06 03:32:26;;;;;;;19.67;2.78;;;12.30;99.90;;;;;;4993455;28;20546;-66
2021/01/06 03:35:07;;;;;;;20.37;3.27;;;12.30;99.90;;;;;;4993007;28;20053;-65
2021/01/06 03:37:45;;;;;;;14.77;4.00;;;12.30;99.90;;;;;;4993352;28;20059;-65
2021/01/06 03:40:35;;;;;;;24.77;3.17;;;12.30;99.90;;;;;;4993326;28;20058;-65
2021/01/06 03:43:09;;;;;;;24.40;4.00;;;12.20;99.90;;;;;;4993364;28;20515;-65
2021/01/06 03:45:41;;;;;;;18.58;2.83;;;12.20;99.90;;;;;;4992847;28;20054;-65
2021/01/06 03:48:27;;;;;;;13.98;2.70;;;12.20;99.90;;;;;;4993244;28;20065;-66
2021/01/06 03:51:02;;;;;;;13.60;2.13;;;12.20;99.90;;;;;;4993198;28;20460;-65
2021/01/06 03:53:35;;;;;;;17.08;3.55;;;12.20;99.90;;;;;;4993218;28;20058;-65
2021/01/06 03:56:10;;;;;;;14.68;2.47;;;12.20;99.90;;;;;;5009311;28;20521;-65
2021/01/06 03:59:01;;;;;;;17.87;2.83;;;12.20;99.90;;;;;;5012729;28;20050;-65
2021/01/06 04:02:05;;;;;;;15.63;2.03;;;12.20;99.90;;;;;;5012488;28;20281;-65
2021/01/06 04:04:43;;;;;;;20.08;5.25;;;12.20;99.90;;;;;;5012111;28;20054;-65
2021/01/06 04:07:36;;;;;;;19.10;3.83;;;12.30;99.90;;;;;;5012564;28;20555;-65
2021/01/06 04:10:18;;;;;;;22.63;4.30;;;12.30;99.90;;;;;;5016558;28;20060;-65
2021/01/06 04:12:45;;;;;;;15.35;2.47;;;12.30;99.90;;;;;;5012805;28;20511;-65
2021/01/06 04:15:16;;;;;;;13.48;2.22;;;12.30;99.90;;;;;;5010699;28;20141;-65
2021/01/06 04:17:47;;;;;;;18.17;2.88;;;12.30;99.90;;;;;;5012360;28;20058;-65
2021/01/06 04:20:15;;;;;;;25.05;3.03;;;12.30;99.90;;;;;;5012291;28;20061;-66
2021/01/06 04:22:52;;;;;;;24.63;3.45;;;12.30;99.90;;;;;;5012255;28;20546;-65
2021/01/06 04:25:26;;;;;;;12.30;1.73;;;12.30;99.90;;;;;;5011834;28;20060;-65
2021/01/06 04:28:12;;;;;;;24.20;2.33;;;12.30;99.90;;;;;;4995816;28;20089;-67
2021/01/06 04:30:42;;;;;;;19.48;2.83;;;12.30;99.90;;;;;;5010567;28;20103;-64
2021/01/06 04:33:41;;;;;;;13.93;2.55;;;12.40;99.90;;;;;;5012177;28;20061;-66
2021/01/06 04:36:30;;;;;;;18.13;2.13;;;12.40;99.90;;;;;;5010455;28;20116;-66
2021/01/06 04:39:01;;;;;;;20.10;2.72;;;12.40;99.90;;;;;;5012151;28;20058;-65
2021/01/06 04:41:41;;;;;;;15.35;2.53;;;12.40;99.90;;;;;;5010985;28;20057;-65
2021/01/06 04:44:37;;;;;;;21.70;2.80;;;12.30;99.90;;;;;;5011592;28;20050;-64
2021/01/06 04:47:23;;;;;;;19.10;3.42;;;12.30;99.90;;;;;;5011928;28;20050;-66
2021/01/06 04:50:08;;;;;;;24.67;3.13;;;12.30;99.90;;;;;;5011960;28;20054;-65
2021/01/06 04:53:04;;;;;;;21.77;3.38;;;12.30;99.90;;;;;;5011829;28;20062;-65
2021/01/06 04:55:46;;;;;;;27.77;3.80;;;12.20;99.90;;;;;;5011383;28;20054;-66
2021/01/06 04:58:19;;;;;;;21.83;2.70;;;12.20;99.90;;;;;;4992419;28;20073;-65
2021/01/06 05:00:53;;;;;;;12.20;1.80;;;12.10;99.90;;;;;;5019483;28;20054;-65
2021/01/06 05:03:56;;;;;;;23.70;2.13;;;12.10;99.90;;;;;;4992156;28;20519;-65
2021/01/06 05:06:38;;;;;;;15.77;2.35;;;12.10;99.90;;;;;;4991490;28;20572;-66
2021/01/06 05:09:26;;;;;;;19.35;2.70;;;12.10;99.90;;;;;;4992028;28;20058;-65
2021/01/06 05:12:09;;;;;;;26.00;3.97;;;12.10;99.90;;;;;;4992389;28;20559;-65
2021/01/06 05:14:50;;;;;;;15.88;2.10;;;12.20;99.90;;;;;;4991456;28;20054;-65
2021/01/06 05:17:17;;;;;;;14.68;4.18;;;12.20;99.90;;;;;;4991853;28;20054;-65
2021/01/06 05:19:50;;;;;;;14.32;3.90;;;12.20;99.90;;;;;;4991044;28;20475;-65
2021/01/06 05:22:19;;;;;;;15.50;2.80;;;12.20;99.90;;;;;;4990832;28;20127;-65
2021/01/06 05:24:50;;;;;;;24.88;3.97;;;12.20;99.90;;;;;;5022401;28;20053;-65
2021/01/06 05:27:22;;;;;;;14.32;2.78;;;12.20;99.90;;;;;;4991921;28;20095;-66
2021/01/06 05:29:59;;;;;;;18.48;2.65;;;12.20;99.90;;;;;;4998564;28;20064;-65
2021/01/06 05:32:37;;;;;;;12.90;2.65;;;12.20;99.90;;;;;;5011181;28;20064;-66
2021/01/06 05:35:24;;;;;;;16.67;3.08;;;12.20;99.90;;;;;;5010717;28;20050;-65
2021/01/06 05:37:54;;;;;;;19.63;2.13;;;12.30;99.90;;;;;;5011198;28;20128;-65
2021/01/06 05:40:23;;;;;;;20.85;2.92;;;12.30;99.90;;;;;;5011166;28;20525;-65
2021/01/06 05:42:54;;;;;;;16.55;1.60;;;12.30;99.90;;;;;;5010322;28;20052;-66
2021/01/06 05:45:36;;;;;;;13.82;2.80;;;12.30;99.90;;;;;;5009444;28;20077;-65
2021/01/06 05:48:42;;;;;;;14.32;2.38;;;12.30;99.90;;;;;;5011040;28;20062;-65
2021/01/06 05:51:56;;;;;;;16.33;3.22;;;12.20;99.90;;;;;;5012237;28;20046;-65
2021/01/06 05:54:42;;;;;;;16.75;2.05;;;12.20;99.90;;;;;;5050886;28;20128;-65
2021/01/06 05:57:28;;;;;;;17.83;2.45;;;12.30;99.90;;;;;;5050445;28;20053;-66
2021/01/06 06:00:08;;;;;;;15.40;2.50;;;12.30;99.90;;;;;;5002706;28;20051;-65
2021/01/06 06:02:59;;;;;;;10.52;3.05;;;12.30;99.90;;;;;;4991171;28;20058;-66
2021/01/06 06:05:56;;;;;;;12.85;1.83;;;12.20;99.90;;;;;;5025419;28;20047;-65
2021/01/06 06:08:42;;;;;;;15.80;1.77;;;12.30;99.90;;;;;;5113832;28;20503;-65
2021/01/06 06:11:18;;;;;;;8.95;1.25;;;12.30;99.90;;;;;;5113971;28;20047;-64
2021/01/06 06:14:09;;;;;;;19.13;1.52;;;12.30;99.90;;;;;;5113792;28;20052;-65
2021/01/06 06:17:26;;;;;;;24.50;3.72;;;12.30;99.90;;;;;;5100339;28;20077;-65
2021/01/06 06:20:18;;;;;;;12.63;2.20;;;12.30;99.90;;;;;;5111287;28;20454;-65
2021/01/06 06:23:15;;;;;;;14.13;3.30;;;12.30;99.90;;;;;;5113600;28;20050;-66
2021/01/06 06:26:11;;;;;;;22.70;2.33;;;12.30;99.90;;;;;;5108097;28;20063;-65
2021/01/06 06:28:51;;;;;;;17.02;2.83;;;12.30;99.90;;;;;;5010040;28;20050;-63
2021/01/06 06:31:23;;;;;;;18.10;3.10;;;12.30;99.90;;;;;;5010341;28;20053;-65
2021/01/06 06:33:58;;;;;;;15.73;2.42;;;12.30;99.90;;;;;;5010420;28;20141;-65
2021/01/06 06:36:31;;;;;;;19.42;4.45;;;12.30;99.90;;;;;;5009975;28;20065;-65
2021/01/06 06:39:31;;;;;;;16.75;2.83;;;12.30;99.90;;;;;;5010313;28;20061;-66
2021/01/06 06:42:13;;;;;;;17.80;3.55;;;12.30;99.90;;;;;;5010536;28;20563;-65
2021/01/06 06:44:55;;;;;;;18.13;2.00;;;12.30;99.90;;;;;;5009836;28;20046;-65
2021/01/06 06:47:42;;;;;;;11.52;2.42;;;12.40;99.90;;;;;;5010136;28;20392;-65
2021/01/06 06:50:14;;;;;;;20.85;3.13;;;12.40;99.90;;;;;;5010202;28;20062;-65
2021/01/06 06:53:11;;;;;;;21.08;4.47;;;12.50;99.90;;;;;;5010178;28;20068;-65
2021/01/06 06:56:12;;;;;;;18.30;2.70;;;12.50;99.90;;;;;;5010879;28;20042;-65
2021/01/06 06:58:48;;;;;;;12.70;2.83;;;12.50;99.90;;;;;;4990402;28;20050;-65
2021/01/06 07:01:21;;;;;;;23.40;2.25;;;12.60;99.90;;;;;;4990352;28;20047;-65
2021/01/06 07:04:27;;;;;;;19.35;3.40;;;12.60;99.90;;;;;;4990500;28;20157;-66
2021/01/06 07:06:58;;;;;;;19.85;2.05;;;12.70;99.90;;;;;;4997708;28;20077;-65
2021/01/06 07:09:32;;;;;;;11.05;2.47;;;12.80;99.90;;;;;;5002167;28;20054;-66
2021/01/06 07:12:10;;;;;;;12.48;1.58;;;12.80;99.90;;;;;;4993839;28;20057;-65
2021/01/06 07:14:57;;;;;;;14.52;2.92;;;12.80;99.90;;;;;;4993423;28;20059;-65
2021/01/06 07:17:32;;;;;;;20.30;2.90;;;12.90;99.90;;;;;;4993620;28;20133;-64
2021/01/06 07:20:07;;;;;;;12.35;2.60;;;12.90;99.90;;;;;;4993779;28;20137;-65
2021/01/06 07:22:43;;;;;;;21.58;5.68;;;12.90;99.90;;;;;;4994242;28;20061;-65
2021/01/06 07:25:17;;;;;;;20.98;4.28;;;13.00;99.90;;;;;;5000331;28;20128;-65
2021/01/06 07:27:57;;;;;;;18.60;4.25;;;13.00;99.90;;;;;;5013141;28;20053;-65
2021/01/06 07:30:39;;;;;;;22.50;2.63;;;13.10;99.90;;;;;;5013150;28;20054;-65
2021/01/06 07:33:36;;;;;;;14.13;4.05;;;13.20;99.90;;;;;;5013397;28;20041;-66
2021/01/06 07:36:13;;;;;;;19.25;3.00;;;13.30;99.90;;;;;;5012517;28;20494;-65
2021/01/06 07:38:43;;;;;;;14.60;4.95;;;13.40;99.90;;;;;;5005623;28;20043;-65
2021/01/06 07:41:12;;;;;;;10.88;3.10;;;13.50;99.90;;;;;;4993962;28;20047;-66
2021/01/06 07:43:56;;;;;;;17.35;5.20;;;13.60;99.90;;;;;;4993233;28;20133;-67
2021/01/06 07:46:30;;;;;;;26.48;5.13;;;13.70;99.90;;;;;;4992893;28;20138;-64
2021/01/06 07:49:08;;;;;;;13.43;3.95;;;13.80;99.90;;;;;;4992217;28;20046;-65
2021/01/06 07:51:58;;;;;;;30.83;4.07;;;14.00;99.90;;;;;;4993217;28;20055;-66
2021/01/06 07:55:02;;;;;;;18.50;3.05;;;14.10;99.90;;;;;;4993169;28;20058;-65
2021/01/06 07:57:44;;;;;;;16.23;3.10;;;14.20;99.90;;;;;;5013185;28;20422;-65
2021/01/06 08:00:15;;;;;;;27.50;2.97;;;14.30;99.90;;;;;;4993055;28;20062;-66
2021/01/06 08:03:06;;;;;;;23.80;3.25;;;14.40;99.90;;;;;;4992980;28;20082;-66
2021/01/06 08:05:35;;;;;;;14.15;3.10;;;14.40;99.90;;;;;;4992530;28;20416;-66
2021/01/06 08:08:16;;;;;;;12.43;2.95;;;14.50;99.90;;;;;;4992915;28;20054;-66
2021/01/06 08:10:47;;;;;;;29.55;6.88;;;14.50;99.90;;;;;;5010737;28;20062;-65
2021/01/06 08:13:15;;;;;;;19.67;6.05;;;14.50;99.90;;;;;;5012447;28;20057;-65
2021/01/06 08:15:45;;;;;;;23.90;5.32;;;14.50;99.90;;;;;;5011805;28;20050;-66
2021/01/06 08:18:24;;;;;;;22.40;4.95;;;14.70;99.90;;;;;;4997377;28;20061;-66
2021/01/06 08:21:10;;;;;;;20.70;3.50;;;14.70;99.90;;;;;;4992831;28;20054;-66
2021/01/06 08:24:19;;;;;;;25.85;3.75;;;14.90;99.90;;;;;;4992688;28;20438;-64
2021/01/06 08:26:58;;;;;;;24.58;3.10;;;15.00;99.90;;;;;;4992692;28;20057;-66
2021/01/06 08:29:30;;;;;;;15.65;5.40;;;15.10;99.90;;;;;;4992586;28;20410;-65
2021/01/06 08:32:06;;;;;;;16.80;3.33;;;15.20;99.90;;;;;;4992479;28;20419;-68
2021/01/06 08:34:36;;;;;;;17.85;3.90;;;15.20;99.90;;;;;;4992131;28;20054;-65
2021/01/06 08:37:21;;;;;;;19.55;4.13;;;15.20;99.90;;;;;;4992403;28;20054;-65
2021/01/06 08:39:55;;;;;;;25.75;3.47;;;15.20;99.90;;;;;;5000948;28;20052;-66
2021/01/06 08:42:27;;;;;;;12.07;2.65;;;15.30;99.90;;;;;;5010965;28;20050;-66
2021/01/06 08:44:56;;;;;;;15.88;3.80;;;15.30;99.90;;;;;;5011018;28;20073;-66
2021/01/06 08:47:36;;;;;;;26.30;2.97;;;15.40;99.90;;;;;;5011325;28;20140;-65
2021/01/06 08:50:22;;;;;;;18.65;3.97;;;15.70;99.90;;;;;;5011612;28;20432;-66
2021/01/06 08:52:53;;;;;;;15.50;2.35;;;15.80;99.90;;;;;;5010449;28;20050;-66
2021/01/06 08:55:26;;;;;;;17.38;4.57;;;15.90;99.90;;;;;;5010842;28;20058;-68
2021/01/06 08:58:16;;;;;;;19.27;4.15;;;16.10;99.90;;;;;;5011208;28;20061;-67
2021/01/06 09:00:51;;;;;;;14.95;4.35;;;16.20;99.90;;;;;;5011088;28;20042;-67
2021/01/06 09:03:19;;;;;;;16.98;3.70;;;16.40;99.90;;;;;;5011365;28;20503;-66
2021/01/06 09:06:01;;;;;;;14.13;3.40;;;16.60;99.90;;;;;;5008891;28;20077;-64
2021/01/06 09:08:38;;;;;;;16.50;2.47;;;16.60;99.90;;;;;;5010212;28;20046;-65
2021/01/06 09:11:12;;;;;;;17.10;4.05;;;16.50;99.90;;;;;;4991736;28;20058;-66
2021/01/06 09:14:09;;;;;;;16.10;2.15;;;16.60;99.90;;;;;;4997104;28;20114;-64
2021/01/06 09:16:47;;;;;;;20.13;3.15;;;16.60;99.70;;;;;;5011268;28;20507;-65
2021/01/06 09:19:33;;;;;;;23.08;3.67;;;16.80;99.10;;;;;;5010989;28;20100;-64
2021/01/06 09:22:02;;;;;;;14.30;2.17;;;16.90;98.20;;;;;;5010361;28;20068;-66
2021/01/06 09:24:35;;;;;;;17.40;2.90;;;16.90;97.70;;;;;;5010905;28;20391;-67
2021/01/06 09:27:20;;;;;;;25.48;4.43;;;16.90;96.80;;;;;;5010861;28;20054;-66
2021/01/06 09:29:50;;;;;;;19.05;2.67;;;16.90;96.00;;;;;;5010627;28;20050;-64
2021/01/06 09:32:28;;;;;;;14.27;3.35;;;17.10;96.20;;;;;;5011095;28;20087;-66
2021/01/06 09:35:00;;;;;;;13.68;4.82;;;17.10;95.70;;;;;;5032878;28;20046;-64
2021/01/06 09:37:31;;;;;;;20.92;4.43;;;17.10;95.40;;;;;;5007880;28;20050;-64
2021/01/06 09:40:13;;;;;;;22.35;3.22;;;17.10;95.20;;;;;;5010065;28;20076;-63
2021/01/06 09:42:44;;;;;;;21.42;4.57;;;17.10;94.90;;;;;;5009028;28;20046;-64
2021/01/06 09:45:21;;;;;;;14.98;3.50;;;17.00;94.30;;;;;;4987081;28;20503;-65
2021/01/06 09:47:54;;;;;;;17.30;4.60;;;16.80;94.20;;;;;;4991216;28;20418;-65
2021/01/06 09:50:53;;;;;;;24.88;4.30;;;16.80;94.10;;;;;;4991237;28;20115;-65
2021/01/06 09:53:25;;;;;;;19.45;2.80;;;16.70;93.80;;;;;;4980139;28;20043;-66
2021/01/06 09:55:55;;;;;;;18.08;4.60;;;16.80;94.00;;;;;;4990461;28;20107;-66
2021/01/06 09:58:35;;;;;;;20.17;5.28;;;16.80;93.90;;;;;;4991048;28;20059;-66
2021/01/06 10:01:08;;;;;;;23.20;3.50;;;16.80;93.90;;;;;;5004167;28;20388;-66
2021/01/06 10:03:39;;;;;;;20.67;4.93;;;16.80;94.10;;;;;;5008943;28;20050;-65
2021/01/06 10:06:32;;;;;;;14.85;5.22;;;16.80;94.30;;;;;;4994890;28;20081;-66
2021/01/06 10:09:08;;;;;;;36.97;14.63;;;16.80;93.60;;;;;;5014879;28;20532;-66
2021/01/06 10:11:50;;;;;;;20.33;3.83;;;16.60;93.20;;;;;;4990635;28;20062;-66
2021/01/06 10:14:53;;;;;;;16.83;3.72;;;16.40;93.80;;;;;;4989556;28;20051;-65
2021/01/06 10:17:27;;;;;;;15.73;3.30;;;16.40;94.30;;;;;;5023886;28;20099;-65
2021/01/06 10:20:12;;;;;;;11.25;2.58;;;16.50;95.30;;;;;;5010260;28;20049;-65
2021/01/06 10:22:48;;;;;;;13.85;3.55;;;16.70;95.90;;;;;;5010185;28;20053;-66
2021/01/06 10:25:45;;;;;;;14.18;4.30;;;16.70;96.00;;;;;;5009797;28;20046;-65
2021/01/06 10:28:22;;;;;;;9.98;4.25;;;16.60;96.60;;;;;;4990474;28;20534;-66
2021/01/06 10:31:03;;;;;;;13.75;4.10;;;16.80;96.90;;;;;;4995050;28;20049;-67
2021/01/06 10:33:32;;;;;;;9.98;2.28;;;16.90;97.00;;;;;;5036541;28;20177;-63
2021/01/06 10:36:09;;;;;;;13.07;2.88;;;17.10;97.10;;;;;;5028178;28;20136;-64
2021/01/06 10:38:49;;;;;;;33.90;14.85;;;17.40;97.10;;;;;;5008791;28;20061;-63
2021/01/06 10:41:23;;;;;;;25.60;10.35;;;17.40;97.60;;;;;;4992786;28;20456;-64
2021/01/06 10:43:58;;;;;;;20.63;6.55;;;17.40;97.90;;;;;;5004562;28;20042;-65
2021/01/06 10:46:48;;;;;;;39.42;18.85;;;17.30;98.50;;;;;;5006157;28;20074;-62
2021/01/06 10:49:18;;;;;;;19.35;5.45;;;17.40;98.90;;;;;;4993505;28;20055;-63
2021/01/06 10:51:58;;;;;;;10.20;2.35;;;17.30;99.40;;;;;;4993881;28;20042;-66
2021/01/06 10:54:44;;;;;;;25.45;8.18;;;17.10;99.80;;;;;;4993417;28;20052;-66
2021/01/06 10:57:26;;;;;;;16.25;7.72;;;16.90;99.90;;;;;;4993619;28;20058;-65
2021/01/06 11:00:50;;;;;;;41.40;13.93;;;16.90;99.90;;;;;;5005028;28;20417;-64
2021/01/06 11:03:55;;;;;;;8.07;2.97;;;17.00;99.90;;;;;;5032524;28;20045;-63
2021/01/06 11:06:52;;;;;;;18.42;5.88;;;16.90;99.90;;;;;;5031552;28;20101;-64
2021/01/06 11:09:58;;;;;;;16.30;6.68;;;16.70;99.90;;;;;;5006700;28;20057;-63
2021/01/06 11:12:43;;;;;;;22.95;5.55;;;16.50;99.90;;;;;;5011777;28;20065;-67
2021/01/06 11:15:35;;;;;;;6.22;3.50;;;16.30;99.90;;;;;;5010928;28;20057;-66
2021/01/06 11:18:16;;;;;;;8.40;2.45;;;16.20;99.90;;;;;;5012377;28;20462;-65
2021/01/06 11:21:06;;;;;;;18.65;5.40;;;16.10;99.90;;;;;;5011778;28;20054;-63
2021/01/06 11:23:53;;;;;;;9.85;4.15;;;16.00;99.90;;;;;;5011669;28;20534;-64
2021/01/06 11:26:30;;;;;;;5.97;1.80;;;15.90;99.90;;;;;;5011956;28;20054;-66
2021/01/06 11:29:19;;;;;;;13.95;3.75;;;15.80;99.90;;;;;;5012177;28;20103;-66
2021/01/06 11:32:20;;;;;;;10.77;3.50;;;15.70;99.90;;;;;;5010210;28;20058;-66
2021/01/06 11:35:08;;;;;;;9.02;2.65;;;15.60;99.90;;;;;;5014520;28;20068;-63
2021/01/06 11:37:40;;;;;;;6.60;1.67;;;15.30;99.90;;;;;;5020167;28;20058;-67
2021/01/06 11:40:14;;;;;;;10.60;2.60;;;15.10;99.90;;;;;;5011412;28;20050;-63
2021/01/06 11:42:52;;;;;;;15.98;5.20;;;15.00;99.90;;;;;;4999634;28;20082;-65
2021/01/06 11:45:26;;;;;;;14.30;6.40;;;15.00;99.90;;;;;;4991480;28;20415;-65
2021/01/06 11:48:05;;;;;;;13.23;4.88;;;15.00;99.90;;;;;;4991359;28;20086;-65
2021/01/06 12:05:02;;;;;;;11.13;5.25;;;15.10;99.90;;;;;;5143337;27;20119;-63
2021/01/06 12:07:49;;;;;;;15.45;6.18;;;15.20;99.90;;;;;;5105761;28;20134;-63
2021/01/06 12:10:40;;;;;;;12.43;3.90;;;15.30;99.90;;;;;;5108294;28;20070;-63
2021/01/06 12:13:43;;;;;;;15.73;5.75;;;15.40;99.90;;;;;;5106516;28;20050;-63
2021/01/06 12:16:17;;;;;;;13.30;5.82;;;15.40;99.90;;;;;;5075684;28;20089;-63
2021/01/06 12:19:07;;;;;;;7.80;3.20;;;15.30;99.90;;;;;;5109252;28;20048;-62
2021/01/06 12:21:35;;;;;;;17.13;5.25;;;15.30;99.90;;;;;;5108894;28;20055;-63
2021/01/06 12:24:21;;;;;;;13.18;3.47;;;15.30;99.90;;;;;;5108132;28;20458;-63
2021/01/06 12:27:21;;;;;;;9.65;4.03;;;15.20;99.90;;;;;;5108628;28;20499;-63
2021/01/06 12:29:54;;;;;;;10.75;3.25;;;15.30;99.90;;;;;;5108294;28;20139;-63
2021/01/06 12:32:24;;;;;;;12.20;3.60;;;15.30;99.90;;;;;;5110649;28;20073;-63
2021/01/06 12:35:06;;;;;;;16.25;4.05;;;15.20;99.90;;;;;;5108200;28;20048;-64
2021/01/06 12:37:37;;;;;;;12.43;3.38;;;15.30;99.90;;;;;;5108727;28;20055;-63
2021/01/06 12:40:26;;;;;;;16.48;4.95;;;15.30;99.90;;;;;;5125453;28;20055;-64
2021/01/06 12:42:58;;;;;;;8.48;3.50;;;15.30;99.90;;;;;;5124919;28;20461;-63
2021/01/06 12:45:41;;;;;;;19.70;4.95;;;15.40;99.90;;;;;;5127533;28;20065;-63
2021/01/06 12:48:21;;;;;;;15.88;7.47;;;15.50;99.90;;;;;;5128974;27;20070;-63
2021/01/06 12:51:18;;;;;;;29.50;6.47;;;15.50;99.90;;;;;;5128519;27;20048;-64
2021/01/06 12:54:04;;;;;;;20.40;7.05;;;15.50;99.90;;;;;;5126853;28;20048;-62
2021/01/06 12:56:35;;;;;;;15.17;4.97;;;15.50;99.90;;;;;;5108492;28;20047;-62
2021/01/06 12:59:16;;;;;;;12.75;5.43;;;15.40;99.90;;;;;;5106753;28;20150;-64
2021/01/06 13:01:58;;;;;;;29.15;4.22;;;15.20;99.90;;;;;;5107825;28;20071;-63
2021/01/06 13:04:35;;;;;;;12.18;2.67;;;15.20;99.90;;;;;;5100311;28;20051;-63
2021/01/06 13:07:11;;;;;;;16.70;4.95;;;15.10;99.90;;;;;;5094659;28;20440;-64
2021/01/06 13:09:51;;;;;;;10.70;2.90;;;15.10;99.90;;;;;;5092985;28;20052;-63
2021/01/06 13:12:27;;;;;;;22.50;8.50;;;15.10;99.90;;;;;;5092837;28;20052;-63
2021/01/06 13:15:07;;;;;;;17.58;7.72;;;15.10;99.90;;;;;;5092552;28;20496;-64
2021/01/06 13:17:39;;;;;;;17.98;6.63;;;15.20;99.90;;;;;;5093183;28;20056;-62
2021/01/06 13:20:16;;;;;;;16.23;8.75;;;15.20;99.90;;;;;;5093759;28;20511;-64
2021/01/06 13:22:50;;;;;;;22.52;7.85;;;15.30;99.90;;;;;;5094385;28;20044;-64
2021/01/06 13:25:38;;;;;;;19.08;9.75;;;15.30;99.90;;;;;;5103951;28;20114;-64
2021/01/06 13:28:36;;;;;;;13.90;5.18;;;15.30;99.90;;;;;;5114934;28;20059;-63
2021/01/06 13:31:22;;;;;;;30.25;8.95;;;15.40;99.90;;;;;;5113065;28;20036;-64
2021/01/06 13:34:01;;;;;;;18.55;9.15;;;15.40;99.90;;;;;;5113351;28;20607;-65
2021/01/06 13:36:41;;;;;;;18.25;7.15;;;15.50;99.90;;;;;;5113418;28;20048;-63
2021/01/06 13:39:44;;;;;;;18.90;3.78;;;15.40;99.90;;;;;;5113829;28;20048;-64
2021/01/06 13:42:35;;;;;;;21.88;8.38;;;15.40;99.90;;;;;;5113600;28;20051;-64
2021/01/06 13:45:06;;;;;;;12.48;6.22;;;15.50;99.90;;;;;;5112524;28;20552;-64
2021/01/06 13:47:41;;;;;;;18.73;4.03;;;15.50;99.90;;;;;;5112880;28;20043;-61
2021/01/06 13:50:18;;;;;;;13.85;4.18;;;15.40;99.90;;;;;;5094510;28;20078;-64
2021/01/06 13:53:14;;;;;;;8.30;1.90;;;15.40;99.90;;;;;;5091680;28;20130;-63